sensor_id;sensor_type;location;lat;lon;timestamp;temperature;humidity
48936;DHT22;34745;52.276;10.528;2023-12-20T00:02:27;6.60;99.90
48936;DHT22;34745;52.276;10.528;2023-12-20T00:04:54;6.50;99.90
48936;DHT22;34745;52.276;10.528;2023-12-20T00:07:21;6.50;99.90
48936;DHT22;34745;52.276;10.528;2023-12-20T00:09:48;6.50;99.90
48936;DHT22;34745;52.276;10.528;2023-12-20T00:12:17;6.50;99.90
48936;DHT22;34745;52.276;10.528;2023-12-20T00:14:43;6.50;99.90
48936;DHT22;34745;52.276;10.528;2023-12-20T00:17:11;6.50;99.90
48936;DHT22;34745;52.276;10.528;2023-12-20T00:19:37;6.50;99.90
48936;DHT22;34745;52.276;10.528;2023-12-20T00:22:05;6.50;99.90
48936;DHT22;34745;52.276;10.528;2023-12-20T00:24:32;6.50;99.90
48936;DHT22;34745;52.276;10.528;2023-12-20T00:26:59;6.50;99.90
48936;DHT22;34745;52.276;10.528;2023-12-20T00:29:27;6.50;99.90
48936;DHT22;34745;52.276;10.528;2023-12-20T00:31:54;6.50;99.90
48936;DHT22;34745;52.276;10.528;2023-12-20T00:34:21;6.50;99.90
48936;DHT22;34745;52.276;10.528;2023-12-20T00:36:48;6.60;99.90
48936;DHT22;34745;52.276;10.528;2023-12-20T00:39:15;6.60;99.90
48936;DHT22;34745;52.276;10.528;2023-12-20T00:41:42;6.80;99.90
48936;DHT22;34745;52.276;10.528;2023-12-20T00:44:10;6.80;99.90
48936;DHT22;34745;52.276;10.528;2023-12-20T00:46:38;6.80;99.90
48936;DHT22;34745;52.276;10.528;2023-12-20T00:49:05;6.90;99.90
48936;DHT22;34745;52.276;10.528;2023-12-20T00:51:32;6.90;99.90
48936;DHT22;34745;52.276;10.528;2023-12-20T00:53:59;6.90;99.90
48936;DHT22;34745;52.276;10.528;2023-12-20T00:56:27;6.90;99.90
48936;DHT22;34745;52.276;10.528;2023-12-20T00:58:54;6.90;99.90
48936;DHT22;34745;52.276;10.528;2023-12-20T01:01:21;6.90;99.90
48936;DHT22;34745;52.276;10.528;2023-12-20T01:03:50;6.90;99.90
48936;DHT22;34745;52.276;10.528;2023-12-20T01:06:18;7.00;99.90
48936;DHT22;34745;52.276;10.528;2023-12-20T01:08:45;7.00;99.90
48936;DHT22;34745;52.276;10.528;2023-12-20T01:11:13;7.00;99.90
48936;DHT22;34745;52.276;10.528;2023-12-20T01:13:40;7.00;99.90
48936;DHT22;34745;52.276;10.528;2023-12-20T01:16:10;7.00;99.90
48936;DHT22;34745;52.276;10.528;2023-12-20T01:18:37;7.00;99.90
48936;DHT22;34745;52.276;10.528;2023-12-20T01:21:05;7.00;99.90
48936;DHT22;34745;52.276;10.528;2023-12-20T01:23:32;7.00;99.90
48936;DHT22;34745;52.276;10.528;2023-12-20T01:25:59;7.00;99.90
48936;DHT22;34745;52.276;10.528;2023-12-20T01:28:27;6.90;99.90
48936;DHT22;34745;52.276;10.528;2023-12-20T01:30:54;6.90;99.90
48936;DHT22;34745;52.276;10.528;2023-12-20T01:33:21;6.80;99.90
48936;DHT22;34745;52.276;10.528;2023-12-20T01:35:48;6.80;99.90
48936;DHT22;34745;52.276;10.528;2023-12-20T01:38:16;6.80;99.90
48936;DHT22;34745;52.276;10.528;2023-12-20T01:40:45;6.80;99.90
48936;DHT22;34745;52.276;10.528;2023-12-20T01:43:13;6.80;99.90
48936;DHT22;34745;52.276;10.528;2023-12-20T01:45:40;6.80;99.90
48936;DHT22;34745;52.276;10.528;2023-12-20T01:48:08;6.70;99.90
48936;DHT22;34745;52.276;10.528;2023-12-20T01:50:37;6.70;99.90
48936;DHT22;34745;52.276;10.528;2023-12-20T01:53:08;6.60;99.90
48936;DHT22;34745;52.276;10.528;2023-12-20T01:55:39;6.60;99.90
48936;DHT22;34745;52.276;10.528;2023-12-20T01:58:07;6.60;99.90
48936;DHT22;34745;52.276;10.528;2023-12-20T02:00:37;6.60;99.90
48936;DHT22;34745;52.276;10.528;2023-12-20T02:03:05;6.60;99.90
48936;DHT22;34745;52.276;10.528;2023-12-20T02:05:34;6.60;99.90
48936;DHT22;34745;52.276;10.528;2023-12-20T02:08:02;6.50;99.90
48936;DHT22;34745;52.276;10.528;2023-12-20T02:10:29;6.60;99.90
48936;DHT22;34745;52.276;10.528;2023-12-20T02:12:57;6.50;99.90
48936;DHT22;34745;52.276;10.528;2023-12-20T02:15:24;6.40;99.90
48936;DHT22;34745;52.276;10.528;2023-12-20T02:17:52;6.40;99.90
48936;DHT22;34745;52.276;10.528;2023-12-20T02:20:19;6.40;99.90
48936;DHT22;34745;52.276;10.528;2023-12-20T02:22:47;6.40;99.90
48936;DHT22;34745;52.276;10.528;2023-12-20T02:25:15;6.40;99.90
48936;DHT22;34745;52.276;10.528;2023-12-20T02:27:42;6.40;99.90
48936;DHT22;34745;52.276;10.528;2023-12-20T02:30:10;6.40;99.90
48936;DHT22;34745;52.276;10.528;2023-12-20T02:32:37;6.40;99.90
48936;DHT22;34745;52.276;10.528;2023-12-20T02:35:05;6.40;99.90
48936;DHT22;34745;52.276;10.528;2023-12-20T02:37:33;6.30;99.90
48936;DHT22;34745;52.276;10.528;2023-12-20T02:40:02;6.20;99.90
48936;DHT22;34745;52.276;10.528;2023-12-20T02:42:31;6.20;99.90
48936;DHT22;34745;52.276;10.528;2023-12-20T02:44:58;6.30;99.90
48936;DHT22;34745;52.276;10.528;2023-12-20T02:47:25;6.20;99.90
48936;DHT22;34745;52.276;10.528;2023-12-20T02:49:52;6.20;99.90
48936;DHT22;34745;52.276;10.528;2023-12-20T02:52:19;6.20;99.90
48936;DHT22;34745;52.276;10.528;2023-12-20T02:54:47;6.20;99.90
48936;DHT22;34745;52.276;10.528;2023-12-20T02:57:15;6.10;99.90
48936;DHT22;34745;52.276;10.528;2023-12-20T02:59:42;6.10;99.90
48936;DHT22;34745;52.276;10.528;2023-12-20T03:02:09;6.10;99.90
48936;DHT22;34745;52.276;10.528;2023-12-20T03:04:37;6.10;99.90
48936;DHT22;34745;52.276;10.528;2023-12-20T03:07:04;6.00;99.90
48936;DHT22;34745;52.276;10.528;2023-12-20T03:09:31;6.00;99.90
48936;DHT22;34745;52.276;10.528;2023-12-20T03:12:19;6.00;99.90
48936;DHT22;34745;52.276;10.528;2023-12-20T03:14:46;5.90;99.90
48936;DHT22;34745;52.276;10.528;2023-12-20T03:17:13;5.90;99.90
48936;DHT22;34745;52.276;10.528;2023-12-20T03:19:40;5.90;99.90
48936;DHT22;34745;52.276;10.528;2023-12-20T03:22:07;5.90;99.90
48936;DHT22;34745;52.276;10.528;2023-12-20T03:24:34;5.90;99.90
48936;DHT22;34745;52.276;10.528;2023-12-20T03:27:01;5.80;99.90
48936;DHT22;34745;52.276;10.528;2023-12-20T03:29:30;5.80;99.90
48936;DHT22;34745;52.276;10.528;2023-12-20T03:31:57;5.80;99.90
48936;DHT22;34745;52.276;10.528;2023-12-20T03:34:24;5.70;99.90
48936;DHT22;34745;52.276;10.528;2023-12-20T03:36:51;5.70;99.90
48936;DHT22;34745;52.276;10.528;2023-12-20T03:39:18;5.70;99.90
48936;DHT22;34745;52.276;10.528;2023-12-20T03:41:45;5.70;99.90
48936;DHT22;34745;52.276;10.528;2023-12-20T03:44:12;5.70;99.90
48936;DHT22;34745;52.276;10.528;2023-12-20T03:46:40;5.70;99.90
48936;DHT22;34745;52.276;10.528;2023-12-20T03:49:08;5.70;99.90
48936;DHT22;34745;52.276;10.528;2023-12-20T03:51:35;5.70;99.90
48936;DHT22;34745;52.276;10.528;2023-12-20T03:54:02;5.70;99.90
48936;DHT22;34745;52.276;10.528;2023-12-20T03:56:29;5.70;99.90
48936;DHT22;34745;52.276;10.528;2023-12-20T03:58:56;5.60;99.90
48936;DHT22;34745;52.276;10.528;2023-12-20T04:01:24;5.70;99.90
48936;DHT22;34745;52.276;10.528;2023-12-20T04:03:52;5.60;99.90
48936;DHT22;34745;52.276;10.528;2023-12-20T04:06:20;5.70;99.90
48936;DHT22;34745;52.276;10.528;2023-12-20T04:08:47;5.60;99.90
48936;DHT22;34745;52.276;10.528;2023-12-20T04:11:14;5.70;99.90
48936;DHT22;34745;52.276;10.528;2023-12-20T04:13:41;5.60;99.90
48936;DHT22;34745;52.276;10.528;2023-12-20T04:16:08;5.70;99.90
48936;DHT22;34745;52.276;10.528;2023-12-20T04:18:34;5.60;99.90
48936;DHT22;34745;52.276;10.528;2023-12-20T04:21:03;5.50;99.90
48936;DHT22;34745;52.276;10.528;2023-12-20T04:23:30;5.60;99.90
48936;DHT22;34745;52.276;10.528;2023-12-20T04:25:57;5.50;99.90
48936;DHT22;34745;52.276;10.528;2023-12-20T04:28:24;5.50;99.90
48936;DHT22;34745;52.276;10.528;2023-12-20T04:30:52;5.50;99.90
48936;DHT22;34745;52.276;10.528;2023-12-20T04:33:19;5.50;99.90
48936;DHT22;34745;52.276;10.528;2023-12-20T04:35:46;5.50;99.90
48936;DHT22;34745;52.276;10.528;2023-12-20T04:38:15;5.50;99.90
48936;DHT22;34745;52.276;10.528;2023-12-20T04:40:42;5.50;99.90
48936;DHT22;34745;52.276;10.528;2023-12-20T04:43:09;5.50;99.90
48936;DHT22;34745;52.276;10.528;2023-12-20T04:45:36;5.60;99.90
48936;DHT22;34745;52.276;10.528;2023-12-20T04:48:04;5.50;99.90
48936;DHT22;34745;52.276;10.528;2023-12-20T04:50:31;5.60;99.90
48936;DHT22;34745;52.276;10.528;2023-12-20T04:53:00;5.60;99.90
48936;DHT22;34745;52.276;10.528;2023-12-20T04:55:29;5.70;99.90
48936;DHT22;34745;52.276;10.528;2023-12-20T04:57:56;5.70;99.90
48936;DHT22;34745;52.276;10.528;2023-12-20T05:00:23;5.70;99.90
48936;DHT22;34745;52.276;10.528;2023-12-20T05:02:50;5.70;98.20
48936;DHT22;34745;52.276;10.528;2023-12-20T05:05:17;5.80;95.70
48936;DHT22;34745;52.276;10.528;2023-12-20T05:07:44;5.80;88.80
48936;DHT22;34745;52.276;10.528;2023-12-20T05:10:12;5.80;84.60
48936;DHT22;34745;52.276;10.528;2023-12-20T05:12:40;5.80;82.30
48936;DHT22;34745;52.276;10.528;2023-12-20T05:15:08;5.90;83.90
48936;DHT22;34745;52.276;10.528;2023-12-20T05:17:35;5.80;78.30
48936;DHT22;34745;52.276;10.528;2023-12-20T05:20:03;5.80;77.70
48936;DHT22;34745;52.276;10.528;2023-12-20T05:22:30;5.90;78.70
48936;DHT22;34745;52.276;10.528;2023-12-20T05:24:57;5.90;80.90
48936;DHT22;34745;52.276;10.528;2023-12-20T05:27:26;5.90;82.70
48936;DHT22;34745;52.276;10.528;2023-12-20T05:29:55;5.90;82.70
48936;DHT22;34745;52.276;10.528;2023-12-20T05:32:24;5.90;81.10
48936;DHT22;34745;52.276;10.528;2023-12-20T05:34:52;5.90;80.50
48936;DHT22;34745;52.276;10.528;2023-12-20T05:37:19;5.90;76.20
48936;DHT22;34745;52.276;10.528;2023-12-20T05:39:47;5.90;76.10
48936;DHT22;34745;52.276;10.528;2023-12-20T05:42:14;6.00;78.70
48936;DHT22;34745;52.276;10.528;2023-12-20T05:44:41;6.00;75.10
48936;DHT22;34745;52.276;10.528;2023-12-20T05:47:09;6.10;74.60
48936;DHT22;34745;52.276;10.528;2023-12-20T05:49:36;6.00;76.00
48936;DHT22;34745;52.276;10.528;2023-12-20T05:52:04;6.10;83.30
48936;DHT22;34745;52.276;10.528;2023-12-20T05:54:31;6.10;79.80
48936;DHT22;34745;52.276;10.528;2023-12-20T05:56:58;6.10;85.70
48936;DHT22;34745;52.276;10.528;2023-12-20T05:59:25;6.10;69.30
48936;DHT22;34745;52.276;10.528;2023-12-20T06:01:52;6.10;71.10
48936;DHT22;34745;52.276;10.528;2023-12-20T06:04:21;6.20;71.00
48936;DHT22;34745;52.276;10.528;2023-12-20T06:06:49;6.10;70.90
48936;DHT22;34745;52.276;10.528;2023-12-20T06:09:17;6.20;69.10
48936;DHT22;34745;52.276;10.528;2023-12-20T06:11:43;6.20;71.80
48936;DHT22;34745;52.276;10.528;2023-12-20T06:14:11;6.20;75.20
48936;DHT22;34745;52.276;10.528;2023-12-20T06:16:38;6.30;73.80
48936;DHT22;34745;52.276;10.528;2023-12-20T06:19:05;6.30;79.00
48936;DHT22;34745;52.276;10.528;2023-12-20T06:21:33;6.20;88.00
48936;DHT22;34745;52.276;10.528;2023-12-20T06:24:00;6.20;89.30
48936;DHT22;34745;52.276;10.528;2023-12-20T06:26:27;6.20;85.00
48936;DHT22;34745;52.276;10.528;2023-12-20T06:28:54;6.20;90.00
48936;DHT22;34745;52.276;10.528;2023-12-20T06:31:22;6.20;90.30
48936;DHT22;34745;52.276;10.528;2023-12-20T06:33:49;6.20;91.80
48936;DHT22;34745;52.276;10.528;2023-12-20T06:36:24;6.10;96.30
48936;DHT22;34745;52.276;10.528;2023-12-20T06:38:52;6.20;96.90
48936;DHT22;34745;52.276;10.528;2023-12-20T06:41:19;6.20;88.50
48936;DHT22;34745;52.276;10.528;2023-12-20T06:43:46;6.30;93.30
48936;DHT22;34745;52.276;10.528;2023-12-20T06:46:16;6.20;99.70
48936;DHT22;34745;52.276;10.528;2023-12-20T06:48:44;6.30;88.80
48936;DHT22;34745;52.276;10.528;2023-12-20T06:51:13;6.30;90.90
48936;DHT22;34745;52.276;10.528;2023-12-20T06:53:40;6.30;93.90
48936;DHT22;34745;52.276;10.528;2023-12-20T06:56:10;6.30;99.70
48936;DHT22;34745;52.276;10.528;2023-12-20T06:58:41;6.20;99.90
48936;DHT22;34745;52.276;10.528;2023-12-20T07:01:11;6.30;99.90
48936;DHT22;34745;52.276;10.528;2023-12-20T07:03:38;6.30;95.70
48936;DHT22;34745;52.276;10.528;2023-12-20T07:06:06;6.20;92.30
48936;DHT22;34745;52.276;10.528;2023-12-20T07:08:33;6.30;83.60
48936;DHT22;34745;52.276;10.528;2023-12-20T07:11:00;6.30;77.40
48936;DHT22;34745;52.276;10.528;2023-12-20T07:13:29;6.30;75.40
48936;DHT22;34745;52.276;10.528;2023-12-20T07:15:56;6.30;74.70
48936;DHT22;34745;52.276;10.528;2023-12-20T07:18:24;6.30;79.90
48936;DHT22;34745;52.276;10.528;2023-12-20T07:20:51;6.30;88.20
48936;DHT22;34745;52.276;10.528;2023-12-20T07:23:17;6.30;88.40
48936;DHT22;34745;52.276;10.528;2023-12-20T07:25:46;6.30;94.40
48936;DHT22;34745;52.276;10.528;2023-12-20T07:28:13;6.20;99.30
48936;DHT22;34745;52.276;10.528;2023-12-20T07:30:41;6.20;99.90
48936;DHT22;34745;52.276;10.528;2023-12-20T07:33:08;6.30;93.70
48936;DHT22;34745;52.276;10.528;2023-12-20T07:35:36;6.30;95.60
48936;DHT22;34745;52.276;10.528;2023-12-20T07:38:04;6.20;88.40
48936;DHT22;34745;52.276;10.528;2023-12-20T07:40:31;6.30;89.30
48936;DHT22;34745;52.276;10.528;2023-12-20T07:42:58;6.30;88.60
48936;DHT22;34745;52.276;10.528;2023-12-20T07:45:25;6.30;84.20
48936;DHT22;34745;52.276;10.528;2023-12-20T07:47:54;6.60;99.90
48936;DHT22;34745;52.276;10.528;2023-12-20T07:50:22;6.80;99.90
48936;DHT22;34745;52.276;10.528;2023-12-20T07:52:50;7.00;99.90
48936;DHT22;34745;52.276;10.528;2023-12-20T07:55:17;7.10;85.00
48936;DHT22;34745;52.276;10.528;2023-12-20T07:57:44;7.10;64.60
48936;DHT22;34745;52.276;10.528;2023-12-20T08:00:12;7.10;59.80
48936;DHT22;34745;52.276;10.528;2023-12-20T08:02:40;7.20;53.70
48936;DHT22;34745;52.276;10.528;2023-12-20T08:05:08;7.10;40.60
48936;DHT22;34745;52.276;10.528;2023-12-20T08:07:35;6.70;29.70
48936;DHT22;34745;52.276;10.528;2023-12-20T08:10:03;6.50;40.10
48936;DHT22;34745;52.276;10.528;2023-12-20T08:12:30;6.40;50.40
48936;DHT22;34745;52.276;10.528;2023-12-20T08:14:57;6.40;50.90
48936;DHT22;34745;52.276;10.528;2023-12-20T08:17:24;6.40;58.00
48936;DHT22;34745;52.276;10.528;2023-12-20T08:19:51;6.40;56.50
48936;DHT22;34745;52.276;10.528;2023-12-20T08:22:20;6.40;56.10
48936;DHT22;34745;52.276;10.528;2023-12-20T08:24:47;6.40;50.40
48936;DHT22;34745;52.276;10.528;2023-12-20T08:27:14;6.40;49.30
48936;DHT22;34745;52.276;10.528;2023-12-20T08:29:44;6.40;49.90
48936;DHT22;34745;52.276;10.528;2023-12-20T08:32:11;6.40;37.00
48936;DHT22;34745;52.276;10.528;2023-12-20T08:34:38;6.40;46.30
48936;DHT22;34745;52.276;10.528;2023-12-20T08:37:06;6.40;41.30
48936;DHT22;34745;52.276;10.528;2023-12-20T08:39:34;6.40;51.00
48936;DHT22;34745;52.276;10.528;2023-12-20T08:42:01;6.40;58.30
48936;DHT22;34745;52.276;10.528;2023-12-20T08:44:28;6.40;60.10
48936;DHT22;34745;52.276;10.528;2023-12-20T08:46:55;6.40;62.80
48936;DHT22;34745;52.276;10.528;2023-12-20T08:49:24;6.40;56.90
48936;DHT22;34745;52.276;10.528;2023-12-20T08:51:52;6.40;70.30
48936;DHT22;34745;52.276;10.528;2023-12-20T08:54:19;6.40;87.40
48936;DHT22;34745;52.276;10.528;2023-12-20T08:56:47;6.40;91.30
48936;DHT22;34745;52.276;10.528;2023-12-20T08:59:14;6.30;86.90
48936;DHT22;34745;52.276;10.528;2023-12-20T09:01:41;6.40;89.60
48936;DHT22;34745;52.276;10.528;2023-12-20T09:04:09;6.30;90.10
48936;DHT22;34745;52.276;10.528;2023-12-20T09:06:36;6.30;88.20
48936;DHT22;34745;52.276;10.528;2023-12-20T09:09:04;6.30;83.60
48936;DHT22;34745;52.276;10.528;2023-12-20T09:11:31;6.40;83.30
48936;DHT22;34745;52.276;10.528;2023-12-20T09:14:00;6.40;60.00
48936;DHT22;34745;52.276;10.528;2023-12-20T09:16:27;6.60;56.30
48936;DHT22;34745;52.276;10.528;2023-12-20T09:18:55;6.50;56.50
48936;DHT22;34745;52.276;10.528;2023-12-20T09:21:22;6.50;42.80
48936;DHT22;34745;52.276;10.528;2023-12-20T09:23:49;6.60;36.50
48936;DHT22;34745;52.276;10.528;2023-12-20T09:26:16;6.60;42.80
48936;DHT22;34745;52.276;10.528;2023-12-20T09:28:43;6.70;42.90
48936;DHT22;34745;52.276;10.528;2023-12-20T09:31:12;6.60;38.80
48936;DHT22;34745;52.276;10.528;2023-12-20T09:33:39;6.70;38.80
48936;DHT22;34745;52.276;10.528;2023-12-20T09:36:06;6.70;35.00
48936;DHT22;34745;52.276;10.528;2023-12-20T09:38:33;6.70;32.50
48936;DHT22;34745;52.276;10.528;2023-12-20T09:41:01;6.80;32.20
48936;DHT22;34745;52.276;10.528;2023-12-20T09:43:31;6.80;24.90
48936;DHT22;34745;52.276;10.528;2023-12-20T09:46:00;6.80;20.00
48936;DHT22;34745;52.276;10.528;2023-12-20T09:48:31;6.80;15.70
48936;DHT22;34745;52.276;10.528;2023-12-20T09:51:01;6.80;22.10
48936;DHT22;34745;52.276;10.528;2023-12-20T09:53:28;6.80;28.60
48936;DHT22;34745;52.276;10.528;2023-12-20T09:55:58;6.80;27.00
48936;DHT22;34745;52.276;10.528;2023-12-20T09:58:26;6.80;29.10
48936;DHT22;34745;52.276;10.528;2023-12-20T10:00:54;6.80;17.80
48936;DHT22;34745;52.276;10.528;2023-12-20T10:03:24;6.80;21.10
48936;DHT22;34745;52.276;10.528;2023-12-20T10:05:55;6.80;19.40
48936;DHT22;34745;52.276;10.528;2023-12-20T10:08:24;6.80;20.10
48936;DHT22;34745;52.276;10.528;2023-12-20T10:10:52;6.90;18.50
48936;DHT22;34745;52.276;10.528;2023-12-20T10:13:19;6.80;12.50
48936;DHT22;34745;52.276;10.528;2023-12-20T10:15:46;6.90;9.80
48936;DHT22;34745;52.276;10.528;2023-12-20T10:18:13;6.90;9.60
48936;DHT22;34745;52.276;10.528;2023-12-20T10:20:41;6.90;6.10
48936;DHT22;34745;52.276;10.528;2023-12-20T10:23:11;7.00;2.20
48936;DHT22;34745;52.276;10.528;2023-12-20T10:25:39;7.00;1.00
48936;DHT22;34745;52.276;10.528;2023-12-20T10:28:11;7.00;2.20
48936;DHT22;34745;52.276;10.528;2023-12-20T10:30:39;7.10;1.00
48936;DHT22;34745;52.276;10.528;2023-12-20T10:33:07;7.10;1.00
48936;DHT22;34745;52.276;10.528;2023-12-20T10:35:35;7.10;1.00
48936;DHT22;34745;52.276;10.528;2023-12-20T10:38:04;7.10;1.00
48936;DHT22;34745;52.276;10.528;2023-12-20T10:40:35;7.20;1.00
48936;DHT22;34745;52.276;10.528;2023-12-20T10:43:04;7.20;1.00
48936;DHT22;34745;52.276;10.528;2023-12-20T10:45:32;7.20;1.00
48936;DHT22;34745;52.276;10.528;2023-12-20T10:48:00;7.20;1.00
48936;DHT22;34745;52.276;10.528;2023-12-20T10:50:29;7.20;1.00
48936;DHT22;34745;52.276;10.528;2023-12-20T10:52:57;7.20;1.00
48936;DHT22;34745;52.276;10.528;2023-12-20T10:55:25;7.20;1.00
48936;DHT22;34745;52.276;10.528;2023-12-20T10:57:54;7.20;1.00
48936;DHT22;34745;52.276;10.528;2023-12-20T11:00:28;7.20;1.00
48936;DHT22;34745;52.276;10.528;2023-12-20T11:02:56;7.20;1.00
48936;DHT22;34745;52.276;10.528;2023-12-20T11:05:31;7.30;1.00
48936;DHT22;34745;52.276;10.528;2023-12-20T11:08:07;7.20;1.00
48936;DHT22;34745;52.276;10.528;2023-12-20T11:10:43;7.20;1.00
48936;DHT22;34745;52.276;10.528;2023-12-20T11:13:28;7.20;1.00
48936;DHT22;34745;52.276;10.528;2023-12-20T11:15:57;7.20;1.00
48936;DHT22;34745;52.276;10.528;2023-12-20T11:18:28;7.20;1.00
48936;DHT22;34745;52.276;10.528;2023-12-20T11:21:00;7.20;6.00
48936;DHT22;34745;52.276;10.528;2023-12-20T11:23:29;7.20;3.00
48936;DHT22;34745;52.276;10.528;2023-12-20T11:25:57;7.20;1.00
48936;DHT22;34745;52.276;10.528;2023-12-20T11:28:28;7.20;1.00
48936;DHT22;34745;52.276;10.528;2023-12-20T11:31:00;7.20;4.40
48936;DHT22;34745;52.276;10.528;2023-12-20T11:33:30;7.20;10.60
48936;DHT22;34745;52.276;10.528;2023-12-20T11:35:59;7.20;10.10
48936;DHT22;34745;52.276;10.528;2023-12-20T11:38:27;7.20;12.70
48936;DHT22;34745;52.276;10.528;2023-12-20T11:40:54;7.20;13.10
48936;DHT22;34745;52.276;10.528;2023-12-20T11:43:31;7.20;8.00
48936;DHT22;34745;52.276;10.528;2023-12-20T11:46:03;7.30;9.00
48936;DHT22;34745;52.276;10.528;2023-12-20T11:48:32;7.30;16.40
48936;DHT22;34745;52.276;10.528;2023-12-20T11:50:59;7.30;28.20
48936;DHT22;34745;52.276;10.528;2023-12-20T11:53:26;7.20;33.40
48936;DHT22;34745;52.276;10.528;2023-12-20T11:55:54;7.20;46.30
48936;DHT22;34745;52.276;10.528;2023-12-20T11:58:21;7.10;56.20
48936;DHT22;34745;52.276;10.528;2023-12-20T12:00:51;7.10;71.40
48936;DHT22;34745;52.276;10.528;2023-12-20T12:03:19;7.00;98.70
48936;DHT22;34745;52.276;10.528;2023-12-20T12:05:47;7.00;99.90
48936;DHT22;34745;52.276;10.528;2023-12-20T12:08:14;6.90;99.90
48936;DHT22;34745;52.276;10.528;2023-12-20T12:10:41;6.90;99.90
48936;DHT22;34745;52.276;10.528;2023-12-20T12:13:08;6.80;99.90
48936;DHT22;34745;52.276;10.528;2023-12-20T12:15:36;6.80;99.90
48936;DHT22;34745;52.276;10.528;2023-12-20T12:18:05;6.80;99.90
48936;DHT22;34745;52.276;10.528;2023-12-20T12:20:32;6.70;99.90
48936;DHT22;34745;52.276;10.528;2023-12-20T12:23:03;6.60;99.90
48936;DHT22;34745;52.276;10.528;2023-12-20T12:25:31;6.60;99.90
48936;DHT22;34745;52.276;10.528;2023-12-20T12:27:59;6.50;99.90
48936;DHT22;34745;52.276;10.528;2023-12-20T12:30:27;6.40;99.90
48936;DHT22;34745;52.276;10.528;2023-12-20T12:33:00;6.40;99.90
48936;DHT22;34745;52.276;10.528;2023-12-20T12:35:29;6.30;99.90
48936;DHT22;34745;52.276;10.528;2023-12-20T12:37:59;6.30;99.90
48936;DHT22;34745;52.276;10.528;2023-12-20T12:40:27;6.40;99.90
48936;DHT22;34745;52.276;10.528;2023-12-20T12:42:54;6.40;99.90
48936;DHT22;34745;52.276;10.528;2023-12-20T12:45:21;6.40;99.90
48936;DHT22;34745;52.276;10.528;2023-12-20T12:47:49;6.40;99.90
48936;DHT22;34745;52.276;10.528;2023-12-20T12:50:16;6.40;99.90
48936;DHT22;34745;52.276;10.528;2023-12-20T12:52:45;6.30;99.90
48936;DHT22;34745;52.276;10.528;2023-12-20T12:55:12;6.30;99.90
48936;DHT22;34745;52.276;10.528;2023-12-20T12:57:39;6.30;99.90
48936;DHT22;34745;52.276;10.528;2023-12-20T13:00:08;6.20;99.90
48936;DHT22;34745;52.276;10.528;2023-12-20T13:02:36;6.20;99.90
48936;DHT22;34745;52.276;10.528;2023-12-20T13:05:05;6.10;99.90
48936;DHT22;34745;52.276;10.528;2023-12-20T13:07:32;6.10;99.90
48936;DHT22;34745;52.276;10.528;2023-12-20T13:10:02;6.10;99.90
48936;DHT22;34745;52.276;10.528;2023-12-20T13:12:30;6.00;99.90
48936;DHT22;34745;52.276;10.528;2023-12-20T13:14:57;6.00;99.90
48936;DHT22;34745;52.276;10.528;2023-12-20T13:17:24;6.00;98.70
48936;DHT22;34745;52.276;10.528;2023-12-20T13:19:51;6.00;99.90
48936;DHT22;34745;52.276;10.528;2023-12-20T13:22:18;6.00;91.70
48936;DHT22;34745;52.276;10.528;2023-12-20T13:24:45;5.90;89.30
48936;DHT22;34745;52.276;10.528;2023-12-20T13:27:14;5.90;73.70
48936;DHT22;34745;52.276;10.528;2023-12-20T13:29:41;5.90;71.50
48936;DHT22;34745;52.276;10.528;2023-12-20T13:32:08;5.80;69.10
48936;DHT22;34745;52.276;10.528;2023-12-20T13:34:35;5.70;69.10
48936;DHT22;34745;52.276;10.528;2023-12-20T13:37:03;5.80;69.10
48936;DHT22;34745;52.276;10.528;2023-12-20T13:39:31;5.70;49.40
48936;DHT22;34745;52.276;10.528;2023-12-20T13:41:58;5.70;41.00
48936;DHT22;34745;52.276;10.528;2023-12-20T13:44:28;5.70;43.50
48936;DHT22;34745;52.276;10.528;2023-12-20T13:46:55;5.70;33.70
48936;DHT22;34745;52.276;10.528;2023-12-20T13:49:22;5.60;24.20
48936;DHT22;34745;52.276;10.528;2023-12-20T13:51:53;5.70;18.60
48936;DHT22;34745;52.276;10.528;2023-12-20T13:54:22;5.70;15.00
48936;DHT22;34745;52.276;10.528;2023-12-20T13:56:49;5.70;16.10
48936;DHT22;34745;52.276;10.528;2023-12-20T13:59:37;5.70;11.60
48936;DHT22;34745;52.276;10.528;2023-12-20T14:02:05;5.70;13.90
48936;DHT22;34745;52.276;10.528;2023-12-20T14:04:32;5.90;15.20
48936;DHT22;34745;52.276;10.528;2023-12-20T14:07:09;5.80;15.40
48936;DHT22;34745;52.276;10.528;2023-12-20T14:09:39;5.80;17.10
48936;DHT22;34745;52.276;10.528;2023-12-20T14:12:07;5.80;15.00
48936;DHT22;34745;52.276;10.528;2023-12-20T14:14:37;5.80;22.10
48936;DHT22;34745;52.276;10.528;2023-12-20T14:17:04;5.90;19.10
48936;DHT22;34745;52.276;10.528;2023-12-20T14:19:33;5.90;23.40
48936;DHT22;34745;52.276;10.528;2023-12-20T14:22:00;5.90;23.50
48936;DHT22;34745;52.276;10.528;2023-12-20T14:24:28;5.90;21.70
48936;DHT22;34745;52.276;10.528;2023-12-20T14:26:56;6.00;23.20
48936;DHT22;34745;52.276;10.528;2023-12-20T14:29:22;6.00;26.90
48936;DHT22;34745;52.276;10.528;2023-12-20T14:31:54;6.00;29.30
48936;DHT22;34745;52.276;10.528;2023-12-20T14:34:20;6.00;27.80
48936;DHT22;34745;52.276;10.528;2023-12-20T14:36:47;6.00;29.20
48936;DHT22;34745;52.276;10.528;2023-12-20T14:39:14;6.00;27.40
48936;DHT22;34745;52.276;10.528;2023-12-20T14:41:42;6.00;27.30
48936;DHT22;34745;52.276;10.528;2023-12-20T14:44:09;6.10;27.10
48936;DHT22;34745;52.276;10.528;2023-12-20T14:46:36;6.10;28.50
48936;DHT22;34745;52.276;10.528;2023-12-20T14:49:09;6.10;30.10
48936;DHT22;34745;52.276;10.528;2023-12-20T14:51:36;6.10;35.60
48936;DHT22;34745;52.276;10.528;2023-12-20T14:54:05;6.10;37.90
48936;DHT22;34745;52.276;10.528;2023-12-20T14:56:37;6.10;36.70
48936;DHT22;34745;52.276;10.528;2023-12-20T14:59:04;6.10;41.70
48936;DHT22;34745;52.276;10.528;2023-12-20T15:01:31;6.10;41.50
48936;DHT22;34745;52.276;10.528;2023-12-20T15:03:58;6.10;40.00
48936;DHT22;34745;52.276;10.528;2023-12-20T15:06:27;6.20;32.00
48936;DHT22;34745;52.276;10.528;2023-12-20T15:08:54;6.20;30.20
48936;DHT22;34745;52.276;10.528;2023-12-20T15:11:21;6.20;27.00
48936;DHT22;34745;52.276;10.528;2023-12-20T15:13:48;6.20;26.40
48936;DHT22;34745;52.276;10.528;2023-12-20T15:16:22;6.30;15.70
48936;DHT22;34745;52.276;10.528;2023-12-20T15:18:49;6.20;13.60
48936;DHT22;34745;52.276;10.528;2023-12-20T15:21:16;6.20;9.50
48936;DHT22;34745;52.276;10.528;2023-12-20T15:23:45;6.20;7.20
48936;DHT22;34745;52.276;10.528;2023-12-20T15:26:20;6.30;1.00
48936;DHT22;34745;52.276;10.528;2023-12-20T15:28:47;6.30;1.00
48936;DHT22;34745;52.276;10.528;2023-12-20T15:31:14;6.30;1.00
48936;DHT22;34745;52.276;10.528;2023-12-20T15:33:41;6.30;1.00
48936;DHT22;34745;52.276;10.528;2023-12-20T15:36:08;6.30;1.00
48936;DHT22;34745;52.276;10.528;2023-12-20T15:38:36;6.30;1.00